createdAt,value
2016-04-15T00:00:11.410Z,51
2016-04-15T00:01:09.444Z,51
2016-04-15T00:02:07.384Z,51
2016-04-15T00:03:05.543Z,51
2016-04-15T00:04:03.546Z,51
2016-04-15T00:05:01.532Z,51
2016-04-15T00:07:00.582Z,51
2016-04-15T00:07:58.617Z,51
2016-04-15T00:08:56.650Z,51
2016-04-15T00:09:54.700Z,52
2016-04-15T00:10:53.093Z,52
2016-04-15T00:13:47.445Z,51
2016-04-15T00:15:46.575Z,51
2016-04-15T00:16:44.516Z,51
2016-04-15T00:18:40.677Z,51
2016-04-15T00:20:36.651Z,51
2016-04-15T00:21:34.779Z,51
2016-04-15T00:22:32.828Z,51
2016-04-15T00:23:30.862Z,51
2016-04-15T00:24:28.943Z,51
2016-04-15T00:25:30.008Z,52
2016-04-15T00:26:28.277Z,52
2016-04-15T00:27:26.530Z,51
2016-04-15T00:28:24.454Z,51
2016-04-15T00:29:22.488Z,51
2016-04-15T00:30:20.646Z,51
2016-04-15T00:31:18.571Z,51
2016-04-15T00:32:16.605Z,51
2016-04-15T00:33:14.766Z,51
2016-04-15T00:34:12.830Z,51
2016-04-15T00:35:13.857Z,51
2016-04-15T00:36:11.905Z,51
2016-04-15T00:37:09.924Z,51
2016-04-15T00:38:07.973Z,51
2016-04-15T00:39:05.992Z,51
2016-04-15T00:40:03.932Z,51
2016-04-15T00:41:02.075Z,51
2016-04-15T00:42:00.106Z,51
2016-04-15T00:42:58.125Z,51
2016-04-15T00:43:56.095Z,51
2016-04-15T00:44:57.239Z,52
2016-04-15T00:45:55.414Z,51
2016-04-15T00:46:53.448Z,51
2016-04-15T00:47:51.607Z,51
2016-04-15T00:48:49.642Z,51
2016-04-15T00:49:47.690Z,51
2016-04-15T00:50:45.709Z,52
2016-04-15T00:51:43.884Z,52
2016-04-15T00:52:42.167Z,51
2016-04-15T00:53:40.248Z,52
2016-04-15T00:54:41.282Z,52
2016-04-15T00:55:39.566Z,52
2016-04-15T00:56:37.974Z,51
2016-04-15T00:57:36.118Z,52
2016-04-15T00:58:34.293Z,52
2016-04-15T00:59:32.763Z,52
2016-04-15T01:00:30.766Z,52
2016-04-15T01:01:29.160Z,52
2016-04-15T01:02:27.444Z,52
2016-04-15T01:03:25.713Z,52
2016-04-15T01:04:26.840Z,52
2016-04-15T01:06:23.392Z,52
2016-04-15T01:07:21.785Z,52
2016-04-15T01:08:19.866Z,51
2016-04-15T01:09:17.994Z,51
2016-04-15T01:10:16.184Z,52
2016-04-15T01:11:14.203Z,51
2016-04-15T01:13:10.473Z,52
2016-04-15T01:14:11.351Z,51
2016-04-15T01:18:03.753Z,51
2016-04-15T01:19:01.896Z,51
2016-04-15T01:19:59.959Z,51
2016-04-15T01:20:57.992Z,52
2016-04-15T01:23:55.375Z,51
2016-04-15T01:24:53.519Z,51
2016-04-15T01:25:51.318Z,51
2016-04-15T01:26:49.369Z,52
2016-04-15T01:27:47.652Z,52
2016-04-15T01:28:45.936Z,51
2016-04-15T01:29:44.127Z,52
2016-04-15T01:30:42.394Z,52
2016-04-15T01:32:38.899Z,51
2016-04-15T01:33:39.933Z,52
2016-04-15T01:34:38.186Z,52
2016-04-15T01:36:34.785Z,52
2016-04-15T01:39:29.387Z,51
2016-04-15T01:40:27.531Z,52
2016-04-15T01:41:25.704Z,52
2016-04-15T01:42:24.052Z,52
2016-04-15T01:45:21.670Z,52
2016-04-15T01:46:19.937Z,52
2016-04-15T01:47:18.237Z,51
2016-04-15T01:48:16.395Z,52
2016-04-15T01:49:14.664Z,51
2016-04-15T01:51:10.997Z,52
2016-04-15T01:52:09.219Z,52
2016-04-15T01:53:10.377Z,52
2016-04-15T01:54:08.536Z,51
2016-04-15T01:55:06.571Z,52
2016-04-15T01:56:04.854Z,51
2016-04-15T01:57:02.905Z,52
2016-04-15T01:58:01.202Z,52
2016-04-15T01:58:59.704Z,52
2016-04-15T01:59:58.003Z,52
2016-04-15T02:00:56.038Z,51
2016-04-15T02:01:54.369Z,52
2016-04-15T02:02:55.168Z,52
2016-04-15T02:03:53.452Z,52
2016-04-15T02:04:51.735Z,52
2016-04-15T02:05:50.019Z,52
2016-04-15T02:06:48.429Z,52
2016-04-15T02:07:46.729Z,52
2016-04-15T02:08:45.013Z,52
2016-04-15T02:09:43.312Z,52
2016-04-15T02:10:41.487Z,52
2016-04-15T02:11:39.943Z,52
2016-04-15T02:12:40.976Z,52
2016-04-15T02:13:39.135Z,52
2016-04-15T02:14:37.543Z,52
2016-04-15T02:15:35.828Z,52
2016-04-15T02:16:33.987Z,52
2016-04-15T02:17:32.395Z,52
2016-04-15T02:18:30.601Z,52
2016-04-15T02:19:28.853Z,51
2016-04-15T02:20:26.997Z,52
2016-04-15T02:21:25.391Z,52
2016-04-15T02:22:26.252Z,51
2016-04-15T02:23:24.287Z,51
2016-04-15T02:24:22.445Z,52
2016-04-15T02:25:20.652Z,52
2016-04-15T02:26:18.951Z,51
2016-04-15T02:27:17.047Z,52
2016-04-15T02:28:15.363Z,52
2016-04-15T02:29:13.506Z,52
2016-04-15T02:30:11.915Z,52
2016-04-15T02:31:10.136Z,52
2016-04-15T02:32:11.171Z,52
2016-04-15T02:33:09.579Z,52
2016-04-15T02:34:07.847Z,52
2016-04-15T02:35:06.021Z,52
2016-04-15T02:36:04.321Z,52
2016-04-15T02:37:02.605Z,52
2016-04-15T02:38:01.121Z,52
2016-04-15T02:38:59.187Z,52
2016-04-15T02:39:57.580Z,52
2016-04-15T02:40:55.832Z,52
2016-04-15T02:41:56.835Z,51
2016-04-15T02:42:54.979Z,52
2016-04-15T02:43:53.153Z,52
2016-04-15T02:44:51.671Z,52
2016-04-15T02:45:49.845Z,51
2016-04-15T02:46:47.801Z,52
2016-04-15T02:47:46.179Z,52
2016-04-15T02:48:44.339Z,51
2016-04-15T02:49:42.498Z,52
2016-04-15T02:50:40.720Z,52
2016-04-15T02:51:41.893Z,52
2016-04-15T02:52:40.178Z,52
2016-04-15T02:53:38.321Z,52
2016-04-15T02:54:36.636Z,51
2016-04-15T02:55:34.764Z,52
2016-04-15T02:56:33.063Z,52
2016-04-15T02:57:31.363Z,52
2016-04-15T02:58:29.506Z,52
2016-04-15T02:59:27.914Z,52
2016-04-15T03:00:26.183Z,52
2016-04-15T03:01:27.311Z,52
2016-04-15T03:02:25.564Z,52
2016-04-15T03:03:23.738Z,52
2016-04-15T03:04:22.069Z,52
2016-04-15T03:05:20.431Z,52
2016-04-15T03:06:18.621Z,52
2016-04-15T03:07:16.905Z,52
2016-04-15T03:08:15.189Z,52
2016-04-15T03:09:13.488Z,52
2016-04-15T03:10:11.835Z,52
2016-04-15T03:11:12.837Z,52
2016-04-15T03:13:09.437Z,52
2016-04-15T03:14:07.814Z,52
2016-04-15T03:15:06.036Z,52
2016-04-15T03:16:04.398Z,52
2016-04-15T03:17:02.556Z,52
2016-04-15T03:18:00.837Z,52
2016-04-15T03:18:59.169Z,52
2016-04-15T03:19:57.515Z,52
2016-04-15T03:20:58.503Z,52
2016-04-15T03:21:56.787Z,52
2016-04-15T03:22:55.195Z,51
2016-04-15T03:23:53.104Z,52
2016-04-15T03:24:51.389Z,52
2016-04-15T03:25:49.672Z,52
2016-04-15T03:26:47.972Z,52
2016-04-15T03:27:46.255Z,52
2016-04-15T03:28:44.664Z,52
2016-04-15T03:29:42.995Z,52
2016-04-15T03:30:43.920Z,52
2016-04-15T03:31:42.330Z,52
2016-04-15T03:32:40.488Z,52
2016-04-15T03:33:38.772Z,52
2016-04-15T03:34:37.056Z,52
2016-04-15T03:35:35.480Z,52
2016-04-15T03:36:33.655Z,52
2016-04-15T03:37:31.938Z,52
2016-04-15T03:38:30.191Z,52
2016-04-15T03:39:28.585Z,52
2016-04-15T03:40:29.682Z,52
2016-04-15T03:41:27.996Z,52
2016-04-15T03:42:26.155Z,52
2016-04-15T03:43:24.549Z,52
2016-04-15T03:44:22.879Z,52
2016-04-15T03:45:21.257Z,52
2016-04-15T03:46:19.416Z,52
2016-04-15T03:47:17.732Z,52
2016-04-15T03:48:15.875Z,52
2016-04-15T03:49:14.221Z,52
2016-04-15T03:50:15.255Z,52
2016-04-15T03:51:13.664Z,52
2016-04-15T03:52:11.917Z,52
2016-04-15T03:53:10.106Z,52
2016-04-15T03:54:08.500Z,52
2016-04-15T03:55:06.784Z,52
2016-04-15T03:56:04.958Z,52
2016-04-15T03:57:03.274Z,52
2016-04-15T03:58:01.524Z,52
2016-04-15T03:58:59.869Z,52
2016-04-15T04:00:00.997Z,52
2016-04-15T04:00:59.297Z,52
2016-04-15T04:01:57.581Z,52
2016-04-15T04:02:55.866Z,52
2016-04-15T04:03:54.165Z,52
2016-04-15T04:04:52.464Z,52
2016-04-15T04:05:50.639Z,52
2016-04-15T04:06:48.923Z,52
2016-04-15T04:07:47.207Z,52
2016-04-15T04:08:45.569Z,52
2016-04-15T04:09:46.696Z,52
2016-04-15T04:10:44.965Z,52
2016-04-15T04:11:43.140Z,52
2016-04-15T04:12:41.533Z,52
2016-04-15T04:13:39.707Z,52
2016-04-15T04:14:38.116Z,52
2016-04-15T04:15:36.526Z,52
2016-04-15T04:16:34.575Z,52
2016-04-15T04:17:32.984Z,52
2016-04-15T04:18:31.237Z,52
2016-04-15T04:19:32.223Z,52
2016-04-15T04:20:30.523Z,52
2016-04-15T04:21:28.917Z,52
2016-04-15T04:22:27.200Z,52
2016-04-15T04:23:25.500Z,52
2016-04-15T04:24:23.783Z,52
2016-04-15T04:25:21.958Z,52
2016-04-15T04:26:20.367Z,52
2016-04-15T04:27:18.651Z,52
2016-04-15T04:28:16.904Z,52
2016-04-15T04:29:18.017Z,52
2016-04-15T04:30:16.191Z,52
2016-04-15T04:31:14.616Z,52
2016-04-15T04:32:12.759Z,52
2016-04-15T04:33:11.152Z,52
2016-04-15T04:34:09.452Z,52
2016-04-15T04:36:05.941Z,52
2016-04-15T04:37:04.194Z,52
2016-04-15T04:38:02.538Z,52
2016-04-15T04:39:03.558Z,52
2016-04-15T04:40:01.996Z,52
2016-04-15T04:41:00.264Z,52
2016-04-15T04:41:58.532Z,52
2016-04-15T04:42:56.816Z,52
2016-04-15T04:43:54.991Z,52
2016-04-15T04:44:53.510Z,52
2016-04-15T04:45:51.590Z,52
2016-04-15T04:46:49.999Z,52
2016-04-15T04:47:48.315Z,52
2016-04-15T04:48:49.207Z,52
2016-04-15T04:49:47.648Z,52
2016-04-15T04:50:45.806Z,52
2016-04-15T04:51:44.232Z,52
2016-04-15T04:52:42.509Z,52
2016-04-15T04:53:40.766Z,52
2016-04-15T04:54:39.090Z,52
2016-04-15T04:55:37.292Z,52
2016-04-15T04:56:35.623Z,52
2016-04-15T04:57:33.859Z,52
2016-04-15T04:58:34.987Z,52
2016-04-15T04:59:33.162Z,52
2016-04-15T05:00:31.572Z,52
2016-04-15T05:01:29.730Z,52
2016-04-15T05:02:28.014Z,52
2016-04-15T05:03:26.423Z,52
2016-04-15T05:04:24.707Z,52
2016-04-15T05:05:22.913Z,52
2016-04-15T05:06:21.290Z,52
2016-04-15T05:07:19.527Z,52
2016-04-15T05:08:20.530Z,52
2016-04-15T05:09:18.813Z,52
2016-04-15T05:10:17.099Z,52
2016-04-15T05:11:15.429Z,52
2016-04-15T05:12:13.807Z,52
2016-04-15T05:14:10.374Z,52
2016-04-15T05:15:08.533Z,52
2016-04-15T05:16:06.833Z,52
2016-04-15T05:17:05.163Z,52
2016-04-15T05:18:06.229Z,52
2016-04-15T05:19:04.497Z,52
2016-04-15T05:20:02.903Z,52
2016-04-15T05:21:01.171Z,52
2016-04-15T05:21:59.471Z,52
2016-04-15T05:22:57.630Z,52
2016-04-15T05:23:55.914Z,52
2016-04-15T05:24:54.339Z,52
2016-04-15T05:25:52.513Z,52
2016-04-15T05:26:50.828Z,52
2016-04-15T05:27:51.847Z,52
2016-04-15T05:28:50.147Z,52
2016-04-15T05:29:48.556Z,52
2016-04-15T05:30:46.933Z,52
2016-04-15T05:31:45.076Z,52
2016-04-15T05:32:43.313Z,52
2016-04-15T05:33:41.597Z,52
2016-04-15T05:34:39.866Z,52
2016-04-15T05:35:38.165Z,52
2016-04-15T05:36:36.497Z,51
2016-04-15T05:37:37.639Z,51
2016-04-15T05:38:35.674Z,51
2016-04-15T05:39:33.598Z,51
2016-04-15T05:40:31.757Z,51
2016-04-15T05:41:29.791Z,51
2016-04-15T05:43:25.733Z,51
2016-04-15T05:44:23.893Z,51
2016-04-15T05:45:21.942Z,51
2016-04-15T05:46:19.898Z,51
2016-04-15T05:47:20.916Z,51
2016-04-15T05:48:19.059Z,51
2016-04-15T05:49:16.843Z,51
2016-04-15T05:50:14.518Z,51
2016-04-15T05:51:12.536Z,51
2016-04-15T05:52:10.430Z,51
2016-04-15T05:53:08.464Z,51
2016-04-15T05:54:06.154Z,51
2016-04-15T05:55:08.298Z,51
2016-04-15T05:56:01.751Z,51
2016-04-15T05:57:02.753Z,51
2016-04-15T05:58:00.537Z,51
2016-04-15T05:58:58.320Z,51
2016-04-15T05:59:56.105Z,51
2016-04-15T06:00:53.951Z,51
2016-04-15T06:01:51.906Z,51
2016-04-15T06:02:49.441Z,51
2016-04-15T06:04:45.008Z,51
2016-04-15T06:05:42.839Z,51
2016-04-15T06:06:43.966Z,51
2016-04-15T06:07:41.766Z,51
2016-04-15T06:08:39.457Z,51
2016-04-15T06:09:37.319Z,51
2016-04-15T06:10:35.010Z,51
2016-04-15T06:11:32.872Z,50
2016-04-15T06:12:34.468Z,50
2016-04-15T06:13:36.049Z,50
2016-04-15T06:14:37.488Z,50
2016-04-15T06:15:39.257Z,50
2016-04-15T06:16:40.182Z,50
2016-04-15T06:17:41.856Z,50
2016-04-15T06:18:43.343Z,50
2016-04-15T06:19:45.018Z,50
2016-04-15T06:20:46.474Z,50
2016-04-15T06:21:48.185Z,50
2016-04-15T06:22:49.783Z,50
2016-04-15T06:23:51.114Z,50
2016-04-15T06:24:52.429Z,50
2016-04-15T06:25:53.822Z,50
2016-04-15T06:26:54.684Z,50
2016-04-15T06:27:56.176Z,50
2016-04-15T06:28:57.491Z,50
2016-04-15T06:29:58.790Z,50
2016-04-15T06:31:00.137Z,50
2016-04-15T06:34:03.977Z,50
2016-04-15T06:36:06.576Z,49
2016-04-15T06:37:07.454Z,49
2016-04-15T06:38:08.518Z,49
2016-04-15T06:39:09.615Z,49
2016-04-15T06:40:10.789Z,49
2016-04-15T06:41:11.885Z,49
2016-04-15T06:42:12.935Z,49
2016-04-15T06:43:13.890Z,49
2016-04-15T06:44:14.972Z,49
2016-04-15T06:45:16.145Z,49
2016-04-15T06:46:17.164Z,49
2016-04-15T06:47:18.308Z,49
2016-04-15T06:48:19.388Z,49
2016-04-15T06:49:20.189Z,49
2016-04-15T06:50:21.050Z,49
2016-04-15T06:51:21.772Z,49
2016-04-15T06:52:22.650Z,49
2016-04-15T06:53:23.480Z,49
2016-04-15T06:54:24.311Z,49
2016-04-15T06:55:25.141Z,49
2016-04-15T06:56:25.988Z,49
2016-04-15T06:57:26.882Z,49
2016-04-15T06:58:27.713Z,49
2016-04-15T07:00:28.844Z,49
2016-04-15T07:01:29.533Z,48
2016-04-15T07:03:30.413Z,48
2016-04-15T07:04:30.729Z,48
2016-04-15T07:05:30.966Z,48
2016-04-15T07:06:31.312Z,48
2016-04-15T07:08:32.724Z,48
2016-04-15T07:09:32.929Z,48
2016-04-15T07:10:33.276Z,48
2016-04-15T07:11:33.669Z,48
2016-04-15T07:12:33.984Z,48
2016-04-15T07:13:34.221Z,47
2016-04-15T07:14:34.474Z,47
2016-04-15T07:15:34.431Z,47
2016-04-15T07:16:34.401Z,47
2016-04-15T07:17:35.529Z,47
2016-04-15T07:18:35.532Z,47
2016-04-15T07:19:35.645Z,47
2016-04-15T07:20:35.725Z,47
2016-04-15T07:21:35.763Z,47
2016-04-15T07:22:35.813Z,47
2016-04-15T07:23:35.894Z,47
2016-04-15T07:24:35.927Z,47
2016-04-15T07:25:35.633Z,47
2016-04-15T07:26:35.479Z,47
2016-04-15T07:27:36.503Z,47
2016-04-15T07:29:36.227Z,47
2016-04-15T07:30:36.168Z,47
2016-04-15T07:31:35.718Z,47
2016-04-15T07:32:35.517Z,47
2016-04-15T07:33:35.348Z,47
2016-04-15T07:34:35.240Z,47
2016-04-15T07:35:35.072Z,47
2016-04-15T07:36:34.793Z,46
2016-04-15T07:37:35.936Z,47
2016-04-15T07:38:35.626Z,47
2016-04-15T07:39:35.551Z,47
2016-04-15T07:40:35.241Z,46
2016-04-15T07:41:34.885Z,46
2016-04-15T07:42:34.450Z,46
2016-04-15T07:43:33.969Z,46
2016-04-15T07:44:33.518Z,46
2016-04-15T07:45:33.114Z,46
2016-04-15T07:46:32.336Z,46
2016-04-15T07:47:33.432Z,46
2016-04-15T07:48:32.732Z,46
2016-04-15T07:49:31.906Z,46
2016-04-15T07:50:31.315Z,46
2016-04-15T07:51:30.661Z,46
2016-04-15T07:52:29.913Z,46
2016-04-15T07:53:29.213Z,46
2016-04-15T07:54:28.388Z,45
2016-04-15T07:55:27.546Z,45
2016-04-15T07:56:26.519Z,45
2016-04-15T07:57:27.646Z,45
2016-04-15T07:59:25.745Z,45
2016-04-15T08:00:24.529Z,45
2016-04-15T08:01:23.204Z,45
2016-04-15T08:02:22.097Z,45
2016-04-15T08:04:19.681Z,45
2016-04-15T08:05:18.465Z,45
2016-04-15T08:06:17.187Z,45
2016-04-15T08:07:18.346Z,45
2016-04-15T08:08:17.114Z,45
2016-04-15T08:09:15.898Z,45
2016-04-15T08:10:14.556Z,45
2016-04-15T08:11:13.481Z,45
2016-04-15T08:12:12.156Z,45
2016-04-15T08:13:11.033Z,45
2016-04-15T08:14:09.833Z,45
2016-04-15T08:15:08.632Z,45
2016-04-15T08:16:07.589Z,45
2016-04-15T08:17:08.356Z,44
2016-04-15T08:18:06.891Z,44
2016-04-15T08:19:05.550Z,44
2016-04-15T08:20:04.081Z,44
2016-04-15T08:21:02.730Z,44
2016-04-15T08:22:01.014Z,44
2016-04-15T08:22:59.314Z,44
2016-04-15T08:23:57.956Z,44
2016-04-15T08:24:56.381Z,44
2016-04-15T08:25:55.086Z,44
2016-04-15T08:26:56.105Z,44
2016-04-15T08:27:54.655Z,44
2016-04-15T08:28:53.063Z,44
2016-04-15T08:29:51.708Z,44
2016-04-15T08:30:50.241Z,44
2016-04-15T08:31:48.780Z,44
2016-04-15T08:32:47.231Z,44
2016-04-15T08:34:44.790Z,45
2016-04-15T08:35:43.649Z,45
2016-04-15T08:36:44.566Z,45
2016-04-15T08:37:43.599Z,45
2016-04-15T08:38:42.289Z,45
2016-04-15T08:39:41.104Z,45
2016-04-15T08:40:39.903Z,45
2016-04-15T08:41:38.608Z,45
2016-04-15T08:42:37.397Z,45
2016-04-15T08:43:36.296Z,45
2016-04-15T08:44:35.086Z,45
2016-04-15T08:45:33.828Z,45
2016-04-15T08:46:34.945Z,45
2016-04-15T08:47:33.622Z,45
2016-04-15T08:48:32.563Z,45
2016-04-15T08:49:31.396Z,45
2016-04-15T08:50:30.135Z,45
2016-04-15T08:51:28.905Z,45
2016-04-15T08:52:27.690Z,45
2016-04-15T08:53:26.365Z,45
2016-04-15T08:54:25.276Z,45
2016-04-15T08:55:23.997Z,45
2016-04-15T08:56:25.125Z,46
2016-04-15T08:57:24.410Z,46
2016-04-15T08:58:23.600Z,45
2016-04-15T08:59:22.635Z,46
2016-04-15T09:00:21.981Z,46
2016-04-15T09:01:21.281Z,46
2016-04-15T09:02:20.534Z,46
2016-04-15T09:03:19.959Z,46
2016-04-15T09:04:19.102Z,46
2016-04-15T09:05:18.590Z,46
2016-04-15T09:06:19.467Z,46
2016-04-15T09:07:18.767Z,46
2016-04-15T09:08:18.066Z,46
2016-04-15T09:09:17.490Z,46
2016-04-15T09:10:16.650Z,46
2016-04-15T09:11:16.058Z,46
2016-04-15T09:12:15.280Z,46
2016-04-15T09:13:14.657Z,46
2016-04-15T09:14:13.832Z,46
2016-04-15T09:15:13.178Z,46
2016-04-15T09:17:13.497Z,47
2016-04-15T09:18:13.077Z,46
2016-04-15T09:19:12.346Z,46
2016-04-15T09:20:11.769Z,47
2016-04-15T09:21:11.288Z,47
2016-04-15T09:22:10.729Z,47
2016-04-15T09:23:10.278Z,47
2016-04-15T09:24:09.937Z,47
2016-04-15T09:25:09.472Z,46
2016-04-15T09:26:10.474Z,46
2016-04-15T09:27:10.008Z,47
2016-04-15T09:28:09.823Z,47
2016-04-15T09:29:09.607Z,47
2016-04-15T09:30:09.407Z,47
2016-04-15T09:31:09.206Z,47
2016-04-15T09:32:09.021Z,47
2016-04-15T09:33:08.804Z,46
2016-04-15T09:34:08.104Z,45
2016-04-15T09:35:07.201Z,45
2016-04-15T09:36:08.220Z,44
2016-04-15T09:37:06.754Z,44
2016-04-15T09:38:05.053Z,44
2016-04-15T09:39:03.428Z,43
2016-04-15T09:40:01.337Z,43
2016-04-15T09:40:59.386Z,43
2016-04-15T09:41:57.248Z,43
2016-04-15T09:42:54.939Z,43
2016-04-15T09:43:52.691Z,43
2016-04-15T09:44:50.522Z,43
2016-04-15T09:45:51.555Z,43
2016-04-15T09:46:49.449Z,42
2016-04-15T09:47:50.921Z,42
2016-04-15T09:48:52.486Z,42
2016-04-15T09:49:54.052Z,42
2016-04-15T09:50:55.413Z,42
2016-04-15T09:51:56.713Z,42
2016-04-15T09:52:58.137Z,41
2016-04-15T09:53:59.093Z,41
2016-04-15T09:55:00.080Z,41
2016-04-15T09:56:00.974Z,40
2016-04-15T09:57:01.664Z,40
2016-04-15T09:58:02.120Z,40
2016-04-15T09:59:02.404Z,40
2016-04-15T10:00:02.844Z,40
2016-04-15T10:01:03.034Z,40
2016-04-15T10:02:03.599Z,40
2016-04-15T10:03:03.929Z,40
2016-04-15T10:04:04.495Z,40
2016-04-15T10:05:05.092Z,40
2016-04-15T10:06:06.097Z,40
2016-04-15T10:07:06.412Z,40
2016-04-15T10:08:06.759Z,40
2016-04-15T10:09:07.293Z,41
2016-04-15T10:10:08.233Z,41
2016-04-15T10:11:09.048Z,41
2016-04-15T10:12:10.050Z,42
2016-04-15T10:13:11.459Z,42
2016-04-15T10:14:12.665Z,42
2016-04-15T10:15:14.292Z,43
2016-04-15T10:16:15.264Z,43
2016-04-15T10:17:13.063Z,43
2016-04-15T10:18:11.097Z,44
2016-04-15T10:19:09.397Z,44
2016-04-15T10:20:07.650Z,44
2016-04-15T10:21:05.934Z,44
2016-04-15T10:22:04.216Z,44
2016-04-15T10:23:02.749Z,44
2016-04-15T10:24:01.299Z,44
2016-04-15T10:25:00.004Z,44
2016-04-15T10:26:00.898Z,44
2016-04-15T10:26:59.447Z,44
2016-04-15T10:27:57.982Z,44
2016-04-15T10:28:56.516Z,45
2016-04-15T10:29:55.300Z,45
2016-04-15T10:30:54.083Z,45
2016-04-15T10:31:52.961Z,45
2016-04-15T10:32:51.776Z,45
2016-04-15T10:33:50.560Z,45
2016-04-15T10:34:49.406Z,45
2016-04-15T10:35:50.315Z,45
2016-04-15T10:36:49.349Z,45
2016-04-15T10:37:48.398Z,45
2016-04-15T10:38:47.434Z,45
2016-04-15T10:39:46.607Z,46
2016-04-15T10:40:45.907Z,46
2016-04-15T10:41:45.206Z,46
2016-04-15T10:42:44.381Z,46
2016-04-15T10:43:43.681Z,46
2016-04-15T10:44:43.261Z,46
2016-04-15T10:45:44.155Z,46
2016-04-15T10:46:43.329Z,46
2016-04-15T10:47:42.753Z,46
2016-04-15T10:48:41.928Z,46
2016-04-15T10:49:41.227Z,46
2016-04-15T10:50:40.528Z,46
2016-04-15T10:51:40.186Z,46
2016-04-15T10:52:39.736Z,46
2016-04-15T10:53:39.176Z,46
2016-04-15T10:54:38.788Z,46
2016-04-15T10:55:39.791Z,47
2016-04-15T10:57:39.516Z,47
2016-04-15T10:58:39.222Z,47
2016-04-15T10:59:39.255Z,47
2016-04-15T11:00:38.836Z,47
2016-04-15T11:01:38.621Z,47
2016-04-15T11:02:38.419Z,47
2016-04-15T11:03:38.469Z,47
2016-04-15T11:04:38.096Z,47
2016-04-15T11:05:39.115Z,47
2016-04-15T11:06:38.914Z,47
2016-04-15T11:07:38.714Z,47
2016-04-15T11:08:38.529Z,47
2016-04-15T11:09:38.438Z,47
2016-04-15T11:10:38.363Z,47
2016-04-15T11:11:37.928Z,47
2016-04-15T11:12:37.853Z,47
2016-04-15T11:13:37.543Z,47
2016-04-15T11:14:37.405Z,47
2016-04-15T11:15:38.533Z,47
2016-04-15T11:16:38.222Z,47
2016-04-15T11:17:38.038Z,47
2016-04-15T11:18:37.852Z,47
2016-04-15T11:19:37.636Z,47
2016-04-15T11:20:37.452Z,47
2016-04-15T11:21:37.361Z,47
2016-04-15T11:22:37.302Z,47
2016-04-15T11:23:37.382Z,47
2016-04-15T11:24:37.478Z,47
2016-04-15T11:25:38.496Z,47
2016-04-15T11:26:38.796Z,47
2016-04-15T11:27:38.611Z,47
2016-04-15T11:28:38.927Z,47
2016-04-15T11:29:38.727Z,47
2016-04-15T11:30:38.792Z,47
2016-04-15T11:31:38.857Z,47
2016-04-15T11:33:39.440Z,48
2016-04-15T11:34:40.318Z,48
2016-04-15T11:35:40.587Z,48
2016-04-15T11:36:40.901Z,48
2016-04-15T11:37:41.217Z,48
2016-04-15T11:38:41.531Z,48
2016-04-15T11:39:41.957Z,48
2016-04-15T11:40:42.162Z,48
2016-04-15T11:41:45.790Z,48
2016-04-15T11:42:42.761Z,48
2016-04-15T11:43:43.076Z,48
2016-04-15T11:44:43.439Z,48
2016-04-15T11:45:44.456Z,48
2016-04-15T11:46:44.772Z,48
2016-04-15T11:47:45.087Z,48
2016-04-15T11:48:45.636Z,48
2016-04-15T11:49:45.702Z,48
2016-04-15T11:50:46.017Z,48
2016-04-15T11:52:46.647Z,48
2016-04-15T11:53:46.978Z,48
2016-04-15T11:54:47.324Z,48
2016-04-15T11:56:48.643Z,48
2016-04-15T11:58:49.399Z,48
2016-04-15T11:59:49.588Z,48
2016-04-15T12:00:49.888Z,48
2016-04-15T12:01:50.218Z,48
2016-04-15T12:02:50.893Z,48
2016-04-15T12:03:51.332Z,48
2016-04-15T12:04:51.835Z,48
2016-04-15T12:05:52.729Z,48
2016-04-15T12:06:53.310Z,48
2016-04-15T12:07:53.859Z,48
2016-04-15T12:08:54.457Z,48
2016-04-15T12:09:54.992Z,48
2016-04-15T12:11:56.279Z,48
2016-04-15T12:12:56.688Z,48
2016-04-15T12:13:57.253Z,48
2016-04-15T12:14:57.989Z,48
2016-04-15T12:15:58.899Z,48
2016-04-15T12:17:59.952Z,48
2016-04-15T12:19:00.579Z,48
2016-04-15T12:20:01.269Z,48
2016-04-15T12:21:01.866Z,48
2016-04-15T12:22:02.274Z,48
2016-04-15T12:23:02.840Z,48
2016-04-15T12:24:03.404Z,49
2016-04-15T12:25:04.407Z,48
2016-04-15T12:26:05.545Z,48
2016-04-15T12:27:05.969Z,49
2016-04-15T12:28:06.678Z,48
2016-04-15T12:29:07.368Z,48
2016-04-15T12:30:07.809Z,48
2016-04-15T12:31:08.373Z,48
2016-04-15T12:33:09.628Z,49
2016-04-15T12:34:10.334Z,48
2016-04-15T12:35:11.072Z,48
2016-04-15T12:36:11.965Z,48
2016-04-15T12:38:13.345Z,49
2016-04-15T12:39:14.286Z,49
2016-04-15T12:40:14.991Z,48
2016-04-15T12:41:15.557Z,48
2016-04-15T12:42:16.153Z,49
2016-04-15T12:43:17.046Z,49
2016-04-15T12:44:17.752Z,48
2016-04-15T12:45:18.363Z,49
2016-04-15T12:46:19.383Z,49
2016-04-15T12:47:20.604Z,49
2016-04-15T12:48:21.029Z,49
2016-04-15T12:49:22.063Z,49
2016-04-15T12:50:22.768Z,49
2016-04-15T12:51:23.599Z,49
2016-04-15T12:52:24.398Z,49
2016-04-15T12:53:25.104Z,49
2016-04-15T12:54:25.966Z,49
2016-04-15T12:56:27.925Z,49
2016-04-15T12:57:28.631Z,49
2016-04-15T12:58:29.681Z,49
2016-04-15T12:59:30.276Z,49
2016-04-15T13:00:31.076Z,49
2016-04-15T13:01:31.906Z,49
2016-04-15T13:02:32.847Z,49
2016-04-15T13:03:33.537Z,49
2016-04-15T13:04:34.369Z,49
2016-04-15T13:05:35.231Z,49
2016-04-15T13:06:36.250Z,49
2016-04-15T13:07:37.142Z,49
2016-04-15T13:08:37.833Z,49
2016-04-15T13:09:38.725Z,49
2016-04-15T13:10:39.541Z,49
2016-04-15T13:11:40.355Z,49
2016-04-15T13:12:41.265Z,49
2016-04-15T13:13:42.205Z,49
2016-04-15T13:14:42.802Z,49
2016-04-15T13:15:43.789Z,49
2016-04-15T13:16:44.682Z,49
2016-04-15T13:17:45.497Z,49
2016-04-15T13:18:46.458Z,49
2016-04-15T13:19:47.273Z,49
2016-04-15T13:20:47.948Z,49
2016-04-15T13:21:48.762Z,49
2016-04-15T13:22:49.593Z,49
2016-04-15T13:23:50.659Z,49
2016-04-15T13:24:51.224Z,49
2016-04-15T13:25:52.367Z,49
2016-04-15T13:26:53.370Z,49
2016-04-15T13:30:57.661Z,49
2016-04-15T13:32:59.792Z,49
2016-04-15T13:34:00.998Z,49
2016-04-15T13:35:02.064Z,49
2016-04-15T13:36:03.191Z,49
2016-04-15T13:37:04.334Z,49
2016-04-15T13:38:05.400Z,49
2016-04-15T13:39:06.246Z,49
2016-04-15T13:40:07.313Z,49
2016-04-15T13:41:08.488Z,49
2016-04-15T13:42:09.584Z,49
2016-04-15T13:43:10.524Z,49
2016-04-15T13:44:11.605Z,49
2016-04-15T13:45:12.780Z,49
2016-04-15T13:46:13.908Z,49
2016-04-15T13:48:16.116Z,49
2016-04-15T13:49:16.948Z,49
2016-04-15T13:50:18.028Z,49
2016-04-15T13:51:19.110Z,49
2016-04-15T13:52:20.284Z,49
2016-04-15T13:53:21.365Z,49
2016-04-15T13:55:23.385Z,49
2016-04-15T13:56:24.638Z,49
2016-04-15T13:57:25.547Z,49
2016-04-15T13:58:26.737Z,50
2016-04-15T13:59:28.052Z,49
2016-04-15T14:00:29.273Z,50
2016-04-15T14:01:30.339Z,49
2016-04-15T14:03:32.736Z,49
2016-04-15T14:04:33.925Z,49
2016-04-15T14:05:34.897Z,50
2016-04-15T14:07:37.292Z,50
2016-04-15T14:08:38.624Z,50
2016-04-15T14:09:39.938Z,50
2016-04-15T14:10:41.254Z,50
2016-04-15T14:11:42.584Z,50
2016-04-15T14:12:44.166Z,50
2016-04-15T14:13:45.355Z,50
2016-04-15T14:14:46.561Z,50
2016-04-15T14:15:47.893Z,50
2016-04-15T14:16:49.285Z,50
2016-04-15T14:17:50.288Z,50
2016-04-15T14:18:51.618Z,50
2016-04-15T14:19:52.950Z,50
2016-04-15T14:21:55.612Z,50
2016-04-15T14:22:56.927Z,50
2016-04-15T14:23:58.257Z,50
2016-04-15T14:24:59.698Z,50
2016-04-15T14:26:01.466Z,50
2016-04-15T14:27:02.422Z,50
2016-04-15T14:28:03.425Z,50
2016-04-15T14:29:04.645Z,50
2016-04-15T14:31:07.295Z,50
2016-04-15T14:32:08.735Z,50
2016-04-15T14:33:09.941Z,50
2016-04-15T14:34:11.272Z,50
2016-04-15T14:35:12.727Z,50
2016-04-15T14:36:14.042Z,50
2016-04-15T14:37:15.310Z,50
2016-04-15T14:38:16.329Z,50
2016-04-15T14:39:17.644Z,49
2016-04-15T14:40:18.850Z,50
2016-04-15T14:41:20.166Z,49
2016-04-15T14:42:21.121Z,50
2016-04-15T14:43:22.468Z,50
2016-04-15T14:44:23.782Z,49
2016-04-15T14:45:24.848Z,49
2016-04-15T14:46:25.929Z,50
2016-04-15T14:47:27.432Z,49
2016-04-15T14:48:28.435Z,49
2016-04-15T14:49:29.515Z,49
2016-04-15T14:50:30.471Z,49
2016-04-15T14:51:31.572Z,49
2016-04-15T14:52:32.621Z,49
2016-04-15T14:53:33.812Z,49
2016-04-15T14:54:34.767Z,49
2016-04-15T14:55:35.848Z,49
2016-04-15T14:57:38.041Z,49
2016-04-15T14:58:39.184Z,49
2016-04-15T14:59:40.250Z,49
2016-04-15T15:00:41.331Z,49
2016-04-15T15:01:42.395Z,49
2016-04-15T15:02:43.461Z,49
2016-04-15T15:03:44.541Z,49
2016-04-15T15:04:45.622Z,49